createdAt,value
2022-12-12T00:00:02.152Z,-1.35
2022-12-12T00:05:01.518Z,-1.28
2022-12-12T00:10:01.556Z,-1.28
2022-12-12T00:20:01.758Z,-1.3
2022-12-12T00:25:02.148Z,-1.28
2022-12-12T00:30:01.469Z,-1.31
2022-12-12T00:35:01.848Z,-1.3
2022-12-12T00:40:01.998Z,-1.24
2022-12-12T00:45:01.726Z,-1.39
2022-12-12T00:50:01.795Z,-1.39
2022-12-12T00:55:02.291Z,-1.39
2022-12-12T01:00:02.063Z,-1.44
2022-12-12T01:05:01.339Z,-1.46
2022-12-12T01:10:01.688Z,-1.59
2022-12-12T01:15:01.593Z,-1.62
2022-12-12T01:20:01.862Z,-1.68
2022-12-12T01:25:02.072Z,-1.7
2022-12-12T01:30:01.355Z,-1.75
2022-12-12T01:35:01.950Z,-1.74
2022-12-12T01:40:02.009Z,-1.8
2022-12-12T01:45:02.261Z,-1.79
2022-12-12T01:50:01.342Z,-1.82
2022-12-12T01:55:01.611Z,-1.9
2022-12-12T02:00:01.987Z,-1.91
2022-12-12T02:05:02.147Z,-1.93
2022-12-12T02:10:01.383Z,-1.89
2022-12-12T02:15:01.974Z,-1.88
2022-12-12T02:20:02.334Z,-1.73
2022-12-12T02:25:02.189Z,-1.72
2022-12-12T02:30:01.519Z,-1.74
2022-12-12T02:35:01.918Z,-1.79
2022-12-12T02:40:01.369Z,-1.84
2022-12-12T02:45:02.129Z,-1.87
2022-12-12T02:50:01.569Z,-1.88
2022-12-12T02:55:01.388Z,-1.87
2022-12-12T03:00:01.887Z,-1.88
2022-12-12T03:05:01.415Z,-1.85
2022-12-12T03:10:01.805Z,-1.88
2022-12-12T03:15:02.061Z,-1.83
2022-12-12T03:20:02.140Z,-1.86
2022-12-12T03:25:01.362Z,-1.83
2022-12-12T03:30:01.706Z,-1.82
2022-12-12T03:35:01.874Z,-1.82
2022-12-12T03:40:01.366Z,-1.82
2022-12-12T03:45:01.865Z,-1.78
2022-12-12T03:50:01.897Z,-1.79
2022-12-12T03:55:01.916Z,-1.79
2022-12-12T04:00:01.361Z,-1.86
2022-12-12T04:05:02.077Z,-1.85
2022-12-12T04:10:01.672Z,-1.9
2022-12-12T04:15:01.383Z,-2.02
2022-12-12T04:20:02.264Z,-2.06
2022-12-12T04:25:02.314Z,-2.2
2022-12-12T04:30:02.156Z,-2.33
2022-12-12T04:35:01.529Z,-2.41
2022-12-12T04:40:01.538Z,-2.52
2022-12-12T04:45:01.755Z,-2.62
2022-12-12T04:50:02.124Z,-2.72
2022-12-12T04:55:02.253Z,-2.77
2022-12-12T05:00:01.627Z,-2.83
2022-12-12T05:05:02.040Z,-2.8
2022-12-12T05:10:02.094Z,-2.76
2022-12-12T05:15:01.890Z,-2.76
2022-12-12T05:20:02.104Z,-2.71
2022-12-12T05:25:01.615Z,-2.69
2022-12-12T05:30:02.008Z,-2.68
2022-12-12T05:35:01.837Z,-2.75
2022-12-12T05:40:02.033Z,-2.73
2022-12-12T05:45:02.110Z,-2.68
2022-12-12T05:50:02.091Z,-2.72
2022-12-12T05:55:01.328Z,-2.69
2022-12-12T06:00:01.788Z,-2.68
2022-12-12T06:05:01.945Z,-2.62
2022-12-12T06:10:01.545Z,-2.59
2022-12-12T06:15:02.047Z,-2.61
2022-12-12T06:20:01.456Z,-2.61
2022-12-12T06:25:01.559Z,-2.61
2022-12-12T06:30:01.410Z,-2.58
2022-12-12T06:35:01.664Z,-2.54
2022-12-12T06:40:01.538Z,-2.58
2022-12-12T06:45:01.553Z,-2.54
2022-12-12T06:50:01.600Z,-2.51
2022-12-12T06:55:01.375Z,-2.48
2022-12-12T07:00:01.327Z,-2.46
2022-12-12T07:05:01.302Z,-2.46
2022-12-12T07:10:01.334Z,-2.42
2022-12-12T07:15:02.231Z,-2.41
2022-12-12T07:20:02.115Z,-2.39
2022-12-12T07:25:02.093Z,-2.37
2022-12-12T07:30:02.157Z,-2.35
2022-12-12T07:35:01.959Z,-2.41
2022-12-12T07:40:02.062Z,-2.43
2022-12-12T07:45:02.190Z,-2.48
2022-12-12T07:50:01.270Z,-2.46
2022-12-12T07:55:01.610Z,-2.43
2022-12-12T08:00:01.288Z,-2.41
2022-12-12T08:05:01.758Z,-2.37
2022-12-12T08:10:01.712Z,-2.35
2022-12-12T08:15:02.221Z,-2.3
2022-12-12T08:20:01.769Z,-2.3
2022-12-12T08:25:02.204Z,-2.23
2022-12-12T08:30:02.118Z,-2.2
2022-12-12T08:35:01.592Z,-2.23
2022-12-12T08:40:02.182Z,-2.19
2022-12-12T08:45:01.615Z,-2.19
2022-12-12T08:50:01.567Z,-2.19
2022-12-12T08:55:01.561Z,-2.21
2022-12-12T09:00:01.591Z,-2.24
2022-12-12T09:05:01.661Z,-2.19
2022-12-12T09:10:02.044Z,-2.08
2022-12-12T09:15:01.456Z,-2.06
2022-12-12T09:20:01.787Z,-2.01
2022-12-12T09:25:01.924Z,-1.89
2022-12-12T09:30:02.100Z,-1.83
2022-12-12T09:35:01.735Z,-1.72
2022-12-12T09:40:01.653Z,-1.68
2022-12-12T09:45:01.649Z,-1.55
2022-12-12T09:50:02.036Z,-1.43
2022-12-12T09:55:01.850Z,-1.29
2022-12-12T10:00:02.294Z,-1.2
2022-12-12T10:05:01.537Z,-1.17
2022-12-12T10:10:02.083Z,-1.16
2022-12-12T10:15:01.972Z,-1.09
2022-12-12T10:20:02.041Z,-1.01
2022-12-12T10:25:01.780Z,-0.85
2022-12-12T10:30:01.868Z,-0.6
2022-12-12T10:35:01.790Z,-0.54
2022-12-12T10:40:01.713Z,-0.38
2022-12-12T10:45:01.879Z,-0.42
2022-12-12T10:50:02.089Z,-0.31
2022-12-12T10:55:01.255Z,-0.2
2022-12-12T11:00:01.390Z,-0.15
2022-12-12T11:05:01.683Z,-0.21
2022-12-12T11:10:02.642Z,-0.1
2022-12-12T11:15:01.823Z,-0.06
2022-12-12T11:20:02.087Z,-0
2022-12-12T11:25:02.023Z,0.2
2022-12-12T11:30:02.102Z,0.22
2022-12-12T11:35:01.750Z,0.31
2022-12-12T11:40:01.809Z,0.34
2022-12-12T11:45:01.871Z,0.33
2022-12-12T11:50:07.663Z,0.43
2022-12-12T11:55:01.398Z,0.42
2022-12-12T12:00:01.494Z,0.46
2022-12-12T12:05:01.594Z,0.53
2022-12-12T12:10:01.666Z,0.64
2022-12-12T12:15:01.960Z,0.62
2022-12-12T12:20:02.016Z,0.64
2022-12-12T12:25:01.877Z,0.63
2022-12-12T12:30:01.986Z,0.68
2022-12-12T12:35:02.069Z,0.64
2022-12-12T12:40:01.845Z,0.73
2022-12-12T12:45:01.839Z,0.79
2022-12-12T12:50:01.762Z,0.84
2022-12-12T12:55:01.713Z,0.84
2022-12-12T13:00:01.876Z,0.86
2022-12-12T13:05:01.882Z,0.86
2022-12-12T13:10:01.896Z,0.93
2022-12-12T13:15:01.938Z,0.98
2022-12-12T13:20:01.892Z,0.97
2022-12-12T13:25:01.262Z,1.08
2022-12-12T13:30:01.317Z,1.07
2022-12-12T13:35:01.561Z,1.18
2022-12-12T13:40:01.608Z,1.12
2022-12-12T13:45:01.645Z,1.03
2022-12-12T13:50:01.559Z,1.06
2022-12-12T13:55:01.488Z,1.08
2022-12-12T14:00:01.727Z,1.07
2022-12-12T14:05:02.185Z,1.03
2022-12-12T14:10:01.996Z,0.95
2022-12-12T14:15:01.895Z,0.9
2022-12-12T14:20:01.931Z,0.84
2022-12-12T14:25:02.019Z,0.79
2022-12-12T14:30:01.726Z,0.8
2022-12-12T14:35:01.770Z,0.74
2022-12-12T14:40:01.862Z,0.68
2022-12-12T14:45:01.693Z,0.67
2022-12-12T14:50:02.240Z,0.58
2022-12-12T14:55:01.272Z,0.5
2022-12-12T15:00:01.645Z,0.48
2022-12-12T15:05:04.771Z,0.39
2022-12-12T15:10:02.139Z,0.21
2022-12-12T15:15:02.089Z,0.12
2022-12-12T15:20:02.187Z,-0.09
2022-12-12T15:25:02.124Z,-0.28
2022-12-12T15:30:02.106Z,-0.31
2022-12-12T15:35:01.426Z,-0.31
2022-12-12T15:40:01.800Z,-0.5
2022-12-12T15:45:01.485Z,-0.57
2022-12-12T15:50:01.715Z,-0.64
2022-12-12T15:55:01.604Z,-0.69
2022-12-12T16:00:01.588Z,-0.64
2022-12-12T16:05:01.881Z,-0.64
2022-12-12T16:10:02.028Z,-0.62
2022-12-12T16:15:01.967Z,-0.68
2022-12-12T16:20:02.228Z,-0.7
2022-12-12T16:25:01.349Z,-0.76
2022-12-12T16:30:02.334Z,-0.82
2022-12-12T16:35:01.653Z,-0.83
2022-12-12T16:40:01.841Z,-0.88
2022-12-12T16:45:01.605Z,-0.93
2022-12-12T16:50:02.149Z,-0.97
2022-12-12T16:55:01.796Z,-0.99
2022-12-12T17:00:01.678Z,-1.04
2022-12-12T17:05:02.291Z,-1.06
2022-12-12T17:10:02.301Z,-1.1
2022-12-12T17:15:01.980Z,-1.14
2022-12-12T17:20:01.828Z,-1.14
2022-12-12T17:25:01.823Z,-1.13
2022-12-12T17:30:02.330Z,-1.14
2022-12-12T17:35:02.199Z,-1.19
2022-12-12T17:40:02.094Z,-1.28
2022-12-12T17:45:01.760Z,-1.33
2022-12-12T17:50:01.619Z,-1.45
2022-12-12T17:55:52.918Z,-1.44
2022-12-12T18:00:02.283Z,-1.4
2022-12-12T18:05:02.403Z,-1.48
2022-12-12T18:10:02.222Z,-1.48
2022-12-12T18:20:01.831Z,-1.45
2022-12-12T18:25:01.949Z,-1.45
2022-12-12T18:30:02.062Z,-1.47
2022-12-12T18:35:01.355Z,-1.43
2022-12-12T18:40:01.913Z,-1.45
2022-12-12T18:45:01.534Z,-1.48
2022-12-12T18:50:01.634Z,-1.53
2022-12-12T18:55:01.570Z,-1.56
2022-12-12T19:00:01.889Z,-1.59
2022-12-12T19:05:01.273Z,-1.61
2022-12-12T19:10:01.641Z,-1.62
2022-12-12T19:15:16.617Z,-1.65
2022-12-12T19:20:01.670Z,-1.62
2022-12-12T19:25:02.032Z,-1.68
2022-12-12T19:30:01.534Z,-1.72
2022-12-12T19:35:01.686Z,-1.79
2022-12-12T19:40:02.231Z,-1.84
2022-12-12T19:45:02.054Z,-1.85
2022-12-12T19:50:01.973Z,-1.88
2022-12-12T19:55:02.050Z,-1.88
2022-12-12T20:00:02.138Z,-1.9
2022-12-12T20:05:01.449Z,-1.9
2022-12-12T20:10:01.727Z,-1.88
2022-12-12T20:15:01.668Z,-1.88
2022-12-12T20:20:01.703Z,-1.92
2022-12-12T20:25:01.933Z,-1.92
2022-12-12T20:30:01.835Z,-1.99
2022-12-12T20:35:01.780Z,-1.97
2022-12-12T20:40:01.874Z,-2
2022-12-12T20:45:02.017Z,-2.02
2022-12-12T20:50:01.968Z,-2.06
2022-12-12T20:55:01.993Z,-2.07
2022-12-12T21:00:02.013Z,-2.15
2022-12-12T21:05:01.410Z,-2.18
2022-12-12T21:10:01.809Z,-2.18
2022-12-12T21:15:03.083Z,-2.23
2022-12-12T21:20:06.563Z,-2.28
2022-12-12T21:25:01.930Z,-2.32
2022-12-12T21:30:01.903Z,-2.39
2022-12-12T21:35:02.008Z,-2.39
2022-12-12T21:40:01.987Z,-2.42
2022-12-12T21:45:01.334Z,-2.42
2022-12-12T21:50:01.364Z,-2.41
2022-12-12T21:55:01.413Z,-2.37
2022-12-12T22:00:01.533Z,-2.41
2022-12-12T22:05:02.084Z,-2.43
2022-12-12T22:10:10.798Z,-2.49
2022-12-12T22:15:02.042Z,-2.51
2022-12-12T22:20:01.962Z,-2.52
2022-12-12T22:25:01.826Z,-2.5
2022-12-12T22:30:01.909Z,-2.37
2022-12-12T22:35:01.966Z,-2.45
2022-12-12T22:40:01.852Z,-2.47
2022-12-12T22:45:01.933Z,-2.6
2022-12-12T22:50:01.923Z,-2.67
2022-12-12T22:55:02.008Z,-2.73
2022-12-12T23:00:02.055Z,-2.79
2022-12-12T23:05:01.583Z,-2.83
2022-12-12T23:10:01.920Z,-2.82
2022-12-12T23:15:01.791Z,-2.84
2022-12-12T23:20:01.966Z,-2.66
2022-12-12T23:25:01.836Z,-2.84
2022-12-12T23:30:01.855Z,-2.82
2022-12-12T23:35:02.132Z,-2.67
2022-12-12T23:40:02.063Z,-2.73
2022-12-12T23:45:02.061Z,-2.94
2022-12-12T23:50:02.041Z,-3.19
2022-12-12T23:55:01.873Z,-2.91
